• pl
  • eng

Awiacja
TAF FC 15:30 25.02.2017
  • WIND
  • SIGNIFICANT EURO
  • SIGNIFICANT
  • SIGMET
  • AIRMET
  • TAF FC
  • TAF FT
  • METAR GG30
  • METAR GG00


TAF EPLB 251430Z 2515/2524 28016KT CAVOK
BECMG 2516/2518 23006KT=

TAF EPRA 251430Z 2515/2524 24010KT 9999 SCT040=

TAF EPSY 251430Z 2515/2524 28014KT 9999 SCT035
BECMG 2517/2520 22010KT BKN017
PROB40 2521/2524 BKN013=

TAF EPZG 251430Z 2515/2524 24010KT 9999 SCT040=
Awiacja.imgw.pl jest pogodowym serwisem informacyjnym
Instytutu Meteorologii i Gospodarki Wodnej Państwowego Instytutu Badawczego.
Copyright IMGW PIB 2009-2011© Wszelkie prawa zastrzeżone.